sensor_id;sensor_type;location;lat;lon;timestamp;P1;durP1;ratioP1;P2;durP2;ratioP2
61397;SDS011;47267;48.130;-2.040;2023-05-07T00:00:11;12.73;;;5.63;;
61397;SDS011;47267;48.130;-2.040;2023-05-07T00:02:40;12.93;;;6.07;;
61397;SDS011;47267;48.130;-2.040;2023-05-07T00:05:06;10.50;;;6.07;;
61397;SDS011;47267;48.130;-2.040;2023-05-07T00:07:33;13.07;;;6.72;;
61397;SDS011;47267;48.130;-2.040;2023-05-07T00:09:58;18.23;;;7.05;;
61397;SDS011;47267;48.130;-2.040;2023-05-07T00:12:24;13.52;;;5.95;;
61397;SDS011;47267;48.130;-2.040;2023-05-07T00:14:50;12.65;;;6.47;;
61397;SDS011;47267;48.130;-2.040;2023-05-07T00:17:16;14.18;;;6.70;;
61397;SDS011;47267;48.130;-2.040;2023-05-07T00:19:41;20.88;;;6.78;;
61397;SDS011;47267;48.130;-2.040;2023-05-07T00:22:07;16.00;;;7.32;;
61397;SDS011;47267;48.130;-2.040;2023-05-07T00:24:33;15.77;;;6.45;;
61397;SDS011;47267;48.130;-2.040;2023-05-07T00:26:59;13.90;;;6.18;;
61397;SDS011;47267;48.130;-2.040;2023-05-07T00:29:25;19.77;;;6.25;;
61397;SDS011;47267;48.130;-2.040;2023-05-07T00:31:51;13.35;;;5.95;;
61397;SDS011;47267;48.130;-2.040;2023-05-07T00:34:19;14.63;;;5.93;;
61397;SDS011;47267;48.130;-2.040;2023-05-07T00:36:45;15.07;;;6.72;;
61397;SDS011;47267;48.130;-2.040;2023-05-07T00:39:11;10.00;;;5.97;;
61397;SDS011;47267;48.130;-2.040;2023-05-07T00:41:36;12.23;;;5.70;;
61397;SDS011;47267;48.130;-2.040;2023-05-07T00:44:02;14.20;;;6.38;;
61397;SDS011;47267;48.130;-2.040;2023-05-07T00:46:28;8.93;;;5.55;;
61397;SDS011;47267;48.130;-2.040;2023-05-07T00:48:55;11.38;;;5.68;;
61397;SDS011;47267;48.130;-2.040;2023-05-07T00:51:22;13.05;;;6.18;;
61397;SDS011;47267;48.130;-2.040;2023-05-07T00:53:49;11.48;;;5.97;;
61397;SDS011;47267;48.130;-2.040;2023-05-07T00:56:15;13.75;;;6.38;;
61397;SDS011;47267;48.130;-2.040;2023-05-07T00:58:41;11.32;;;5.60;;
61397;SDS011;47267;48.130;-2.040;2023-05-07T01:01:06;15.90;;;5.72;;
61397;SDS011;47267;48.130;-2.040;2023-05-07T01:03:32;12.90;;;6.22;;
61397;SDS011;47267;48.130;-2.040;2023-05-07T01:05:59;16.25;;;5.25;;
61397;SDS011;47267;48.130;-2.040;2023-05-07T01:08:26;9.90;;;5.55;;
61397;SDS011;47267;48.130;-2.040;2023-05-07T01:10:54;10.77;;;5.22;;
61397;SDS011;47267;48.130;-2.040;2023-05-07T01:13:21;10.52;;;5.07;;
61397;SDS011;47267;48.130;-2.040;2023-05-07T01:15:47;11.98;;;5.50;;
61397;SDS011;47267;48.130;-2.040;2023-05-07T01:18:13;8.73;;;4.93;;
61397;SDS011;47267;48.130;-2.040;2023-05-07T01:20:39;11.15;;;5.22;;
61397;SDS011;47267;48.130;-2.040;2023-05-07T01:23:05;8.27;;;4.75;;
61397;SDS011;47267;48.130;-2.040;2023-05-07T01:25:32;10.27;;;5.07;;
61397;SDS011;47267;48.130;-2.040;2023-05-07T01:27:58;8.63;;;4.93;;
61397;SDS011;47267;48.130;-2.040;2023-05-07T01:30:26;9.85;;;5.25;;
61397;SDS011;47267;48.130;-2.040;2023-05-07T01:35:30;8.90;;;4.80;;
61397;SDS011;47267;48.130;-2.040;2023-05-07T01:38:01;8.00;;;4.80;;
61397;SDS011;47267;48.130;-2.040;2023-05-07T01:40:29;9.73;;;4.57;;
61397;SDS011;47267;48.130;-2.040;2023-05-07T01:42:55;10.50;;;4.45;;
61397;SDS011;47267;48.130;-2.040;2023-05-07T01:45:21;10.63;;;4.82;;
61397;SDS011;47267;48.130;-2.040;2023-05-07T01:47:47;10.70;;;4.53;;
61397;SDS011;47267;48.130;-2.040;2023-05-07T01:50:14;12.00;;;4.78;;
61397;SDS011;47267;48.130;-2.040;2023-05-07T01:52:43;7.57;;;4.30;;
61397;SDS011;47267;48.130;-2.040;2023-05-07T01:55:09;7.82;;;4.40;;
61397;SDS011;47267;48.130;-2.040;2023-05-07T01:57:34;6.03;;;4.03;;
61397;SDS011;47267;48.130;-2.040;2023-05-07T02:00:00;10.95;;;4.13;;
61397;SDS011;47267;48.130;-2.040;2023-05-07T02:02:27;8.75;;;4.00;;
61397;SDS011;47267;48.130;-2.040;2023-05-07T02:04:53;7.28;;;4.00;;
61397;SDS011;47267;48.130;-2.040;2023-05-07T02:07:19;7.30;;;3.90;;
61397;SDS011;47267;48.130;-2.040;2023-05-07T02:09:44;5.40;;;3.53;;
61397;SDS011;47267;48.130;-2.040;2023-05-07T02:12:10;7.65;;;3.80;;
61397;SDS011;47267;48.130;-2.040;2023-05-07T02:14:36;5.80;;;3.70;;
61397;SDS011;47267;48.130;-2.040;2023-05-07T02:17:01;7.18;;;3.22;;
61397;SDS011;47267;48.130;-2.040;2023-05-07T02:19:27;7.60;;;3.90;;
61397;SDS011;47267;48.130;-2.040;2023-05-07T02:21:53;7.43;;;4.10;;
61397;SDS011;47267;48.130;-2.040;2023-05-07T02:24:19;4.88;;;3.30;;
61397;SDS011;47267;48.130;-2.040;2023-05-07T02:26:45;5.13;;;3.15;;
61397;SDS011;47267;48.130;-2.040;2023-05-07T02:29:10;5.05;;;3.22;;
61397;SDS011;47267;48.130;-2.040;2023-05-07T02:31:36;8.57;;;4.00;;
61397;SDS011;47267;48.130;-2.040;2023-05-07T02:34:02;5.78;;;3.40;;
61397;SDS011;47267;48.130;-2.040;2023-05-07T02:36:27;7.28;;;3.60;;
61397;SDS011;47267;48.130;-2.040;2023-05-07T02:38:53;5.25;;;3.30;;
61397;SDS011;47267;48.130;-2.040;2023-05-07T02:41:19;5.53;;;3.47;;
61397;SDS011;47267;48.130;-2.040;2023-05-07T02:43:45;8.23;;;3.22;;
61397;SDS011;47267;48.130;-2.040;2023-05-07T02:46:11;7.15;;;3.38;;
61397;SDS011;47267;48.130;-2.040;2023-05-07T02:48:37;5.88;;;3.35;;
61397;SDS011;47267;48.130;-2.040;2023-05-07T02:51:04;5.95;;;2.95;;
61397;SDS011;47267;48.130;-2.040;2023-05-07T02:53:39;7.47;;;3.08;;
61397;SDS011;47267;48.130;-2.040;2023-05-07T02:56:04;6.65;;;3.60;;
61397;SDS011;47267;48.130;-2.040;2023-05-07T02:58:31;7.55;;;3.17;;
61397;SDS011;47267;48.130;-2.040;2023-05-07T03:00:57;4.25;;;2.90;;
61397;SDS011;47267;48.130;-2.040;2023-05-07T03:03:22;6.43;;;3.13;;
61397;SDS011;47267;48.130;-2.040;2023-05-07T03:05:48;6.13;;;3.28;;
61397;SDS011;47267;48.130;-2.040;2023-05-07T03:08:14;6.13;;;3.10;;
61397;SDS011;47267;48.130;-2.040;2023-05-07T03:10:40;5.88;;;3.03;;
61397;SDS011;47267;48.130;-2.040;2023-05-07T03:13:05;5.75;;;2.80;;
61397;SDS011;47267;48.130;-2.040;2023-05-07T03:15:31;4.82;;;3.08;;
61397;SDS011;47267;48.130;-2.040;2023-05-07T03:17:57;4.00;;;2.65;;
61397;SDS011;47267;48.130;-2.040;2023-05-07T03:20:22;4.65;;;2.65;;
61397;SDS011;47267;48.130;-2.040;2023-05-07T03:22:48;3.95;;;2.60;;
61397;SDS011;47267;48.130;-2.040;2023-05-07T03:25:14;5.75;;;2.83;;
61397;SDS011;47267;48.130;-2.040;2023-05-07T03:27:40;5.13;;;3.22;;
61397;SDS011;47267;48.130;-2.040;2023-05-07T03:30:07;6.78;;;2.85;;
61397;SDS011;47267;48.130;-2.040;2023-05-07T03:32:34;5.55;;;2.22;;
61397;SDS011;47267;48.130;-2.040;2023-05-07T03:35:00;4.72;;;2.60;;
61397;SDS011;47267;48.130;-2.040;2023-05-07T03:37:26;4.63;;;2.50;;
61397;SDS011;47267;48.130;-2.040;2023-05-07T03:39:51;5.75;;;2.88;;
61397;SDS011;47267;48.130;-2.040;2023-05-07T03:42:17;4.35;;;2.63;;
61397;SDS011;47267;48.130;-2.040;2023-05-07T03:44:43;4.63;;;2.63;;
61397;SDS011;47267;48.130;-2.040;2023-05-07T03:47:08;4.50;;;2.38;;
61397;SDS011;47267;48.130;-2.040;2023-05-07T03:49:35;4.07;;;2.55;;
61397;SDS011;47267;48.130;-2.040;2023-05-07T03:52:01;4.55;;;2.80;;
61397;SDS011;47267;48.130;-2.040;2023-05-07T03:54:26;4.10;;;2.55;;
61397;SDS011;47267;48.130;-2.040;2023-05-07T03:56:52;4.22;;;2.53;;
61397;SDS011;47267;48.130;-2.040;2023-05-07T03:59:18;4.70;;;3.00;;
61397;SDS011;47267;48.130;-2.040;2023-05-07T04:01:43;4.38;;;2.53;;
61397;SDS011;47267;48.130;-2.040;2023-05-07T04:04:09;4.75;;;2.30;;
61397;SDS011;47267;48.130;-2.040;2023-05-07T04:06:35;4.25;;;2.30;;
61397;SDS011;47267;48.130;-2.040;2023-05-07T04:09:01;3.17;;;2.13;;
61397;SDS011;47267;48.130;-2.040;2023-05-07T04:11:26;4.45;;;2.22;;
61397;SDS011;47267;48.130;-2.040;2023-05-07T04:13:52;5.45;;;2.20;;
61397;SDS011;47267;48.130;-2.040;2023-05-07T04:16:17;5.75;;;2.60;;
61397;SDS011;47267;48.130;-2.040;2023-05-07T04:18:43;2.95;;;2.00;;
61397;SDS011;47267;48.130;-2.040;2023-05-07T04:21:15;4.57;;;1.92;;
61397;SDS011;47267;48.130;-2.040;2023-05-07T04:23:42;5.00;;;2.30;;
61397;SDS011;47267;48.130;-2.040;2023-05-07T04:26:07;4.32;;;2.45;;
61397;SDS011;47267;48.130;-2.040;2023-05-07T04:28:33;3.58;;;2.28;;
61397;SDS011;47267;48.130;-2.040;2023-05-07T04:31:00;3.15;;;2.03;;
61397;SDS011;47267;48.130;-2.040;2023-05-07T04:33:25;4.65;;;2.17;;
61397;SDS011;47267;48.130;-2.040;2023-05-07T04:35:51;4.68;;;2.38;;
61397;SDS011;47267;48.130;-2.040;2023-05-07T04:38:17;4.22;;;2.22;;
61397;SDS011;47267;48.130;-2.040;2023-05-07T04:40:43;5.90;;;2.30;;
61397;SDS011;47267;48.130;-2.040;2023-05-07T04:43:09;4.47;;;1.92;;
61397;SDS011;47267;48.130;-2.040;2023-05-07T04:45:35;4.22;;;2.08;;
61397;SDS011;47267;48.130;-2.040;2023-05-07T04:48:01;4.05;;;2.20;;
61397;SDS011;47267;48.130;-2.040;2023-05-07T04:50:27;3.33;;;2.03;;
61397;SDS011;47267;48.130;-2.040;2023-05-07T04:52:52;2.78;;;1.92;;
61397;SDS011;47267;48.130;-2.040;2023-05-07T04:55:18;3.53;;;2.17;;
61397;SDS011;47267;48.130;-2.040;2023-05-07T04:57:44;4.95;;;1.90;;
61397;SDS011;47267;48.130;-2.040;2023-05-07T05:00:10;4.15;;;2.13;;
61397;SDS011;47267;48.130;-2.040;2023-05-07T05:02:39;11.48;;;2.45;;
61397;SDS011;47267;48.130;-2.040;2023-05-07T05:05:05;2.78;;;1.80;;
61397;SDS011;47267;48.130;-2.040;2023-05-07T05:07:32;3.08;;;1.92;;
61397;SDS011;47267;48.130;-2.040;2023-05-07T05:09:57;3.15;;;1.92;;
61397;SDS011;47267;48.130;-2.040;2023-05-07T05:12:23;4.22;;;2.10;;
61397;SDS011;47267;48.130;-2.040;2023-05-07T05:14:49;4.43;;;2.10;;
61397;SDS011;47267;48.130;-2.040;2023-05-07T05:17:15;3.63;;;1.90;;
61397;SDS011;47267;48.130;-2.040;2023-05-07T05:19:41;6.93;;;1.80;;
61397;SDS011;47267;48.130;-2.040;2023-05-07T05:22:06;3.65;;;2.00;;
61397;SDS011;47267;48.130;-2.040;2023-05-07T05:24:32;5.70;;;2.15;;
61397;SDS011;47267;48.130;-2.040;2023-05-07T05:26:58;7.65;;;1.80;;
61397;SDS011;47267;48.130;-2.040;2023-05-07T05:29:27;5.05;;;1.92;;
61397;SDS011;47267;48.130;-2.040;2023-05-07T05:31:52;2.38;;;1.70;;
61397;SDS011;47267;48.130;-2.040;2023-05-07T05:34:18;4.20;;;1.88;;
61397;SDS011;47267;48.130;-2.040;2023-05-07T05:36:44;4.80;;;1.73;;
61397;SDS011;47267;48.130;-2.040;2023-05-07T05:39:10;3.30;;;1.92;;
61397;SDS011;47267;48.130;-2.040;2023-05-07T05:41:36;4.50;;;1.83;;
61397;SDS011;47267;48.130;-2.040;2023-05-07T05:44:01;3.00;;;1.70;;
61397;SDS011;47267;48.130;-2.040;2023-05-07T05:46:27;3.10;;;1.80;;
61397;SDS011;47267;48.130;-2.040;2023-05-07T05:48:53;2.30;;;1.52;;
61397;SDS011;47267;48.130;-2.040;2023-05-07T05:51:18;3.22;;;1.88;;
61397;SDS011;47267;48.130;-2.040;2023-05-07T05:53:45;5.30;;;1.83;;
61397;SDS011;47267;48.130;-2.040;2023-05-07T05:56:11;5.60;;;1.90;;
61397;SDS011;47267;48.130;-2.040;2023-05-07T05:58:37;3.03;;;1.65;;
61397;SDS011;47267;48.130;-2.040;2023-05-07T06:01:03;3.13;;;1.80;;
61397;SDS011;47267;48.130;-2.040;2023-05-07T06:03:28;5.47;;;1.80;;
61397;SDS011;47267;48.130;-2.040;2023-05-07T06:05:54;8.50;;;2.00;;
61397;SDS011;47267;48.130;-2.040;2023-05-07T06:08:20;6.95;;;1.83;;
61397;SDS011;47267;48.130;-2.040;2023-05-07T06:10:45;4.88;;;1.80;;
61397;SDS011;47267;48.130;-2.040;2023-05-07T06:13:11;2.58;;;1.40;;
61397;SDS011;47267;48.130;-2.040;2023-05-07T06:15:37;4.70;;;2.10;;
61397;SDS011;47267;48.130;-2.040;2023-05-07T06:18:02;5.38;;;1.85;;
61397;SDS011;47267;48.130;-2.040;2023-05-07T06:20:28;2.83;;;1.40;;
61397;SDS011;47267;48.130;-2.040;2023-05-07T06:22:54;3.05;;;1.50;;
61397;SDS011;47267;48.130;-2.040;2023-05-07T06:25:19;2.83;;;1.45;;
61397;SDS011;47267;48.130;-2.040;2023-05-07T06:27:45;3.00;;;1.42;;
61397;SDS011;47267;48.130;-2.040;2023-05-07T06:30:11;3.95;;;1.70;;
61397;SDS011;47267;48.130;-2.040;2023-05-07T06:32:37;5.57;;;1.70;;
61397;SDS011;47267;48.130;-2.040;2023-05-07T06:35:02;3.33;;;1.60;;
61397;SDS011;47267;48.130;-2.040;2023-05-07T06:37:28;4.90;;;2.17;;
61397;SDS011;47267;48.130;-2.040;2023-05-07T06:39:54;2.28;;;1.58;;
61397;SDS011;47267;48.130;-2.040;2023-05-07T06:42:19;4.47;;;1.55;;
61397;SDS011;47267;48.130;-2.040;2023-05-07T06:44:45;4.65;;;1.70;;
61397;SDS011;47267;48.130;-2.040;2023-05-07T06:47:11;2.47;;;1.50;;
61397;SDS011;47267;48.130;-2.040;2023-05-07T06:49:36;4.57;;;1.65;;
61397;SDS011;47267;48.130;-2.040;2023-05-07T06:52:02;2.88;;;1.35;;
61397;SDS011;47267;48.130;-2.040;2023-05-07T06:54:28;3.78;;;1.45;;
61397;SDS011;47267;48.130;-2.040;2023-05-07T06:56:54;4.00;;;1.40;;
61397;SDS011;47267;48.130;-2.040;2023-05-07T06:59:20;2.72;;;1.60;;
61397;SDS011;47267;48.130;-2.040;2023-05-07T07:01:45;2.60;;;1.20;;
61397;SDS011;47267;48.130;-2.040;2023-05-07T07:04:11;3.95;;;1.55;;
61397;SDS011;47267;48.130;-2.040;2023-05-07T07:06:36;5.03;;;1.60;;
61397;SDS011;47267;48.130;-2.040;2023-05-07T07:09:02;3.90;;;1.50;;
61397;SDS011;47267;48.130;-2.040;2023-05-07T07:11:28;2.22;;;1.48;;
61397;SDS011;47267;48.130;-2.040;2023-05-07T07:13:53;3.38;;;1.38;;
61397;SDS011;47267;48.130;-2.040;2023-05-07T07:16:20;6.50;;;1.52;;
61397;SDS011;47267;48.130;-2.040;2023-05-07T07:18:46;4.30;;;1.40;;
61397;SDS011;47267;48.130;-2.040;2023-05-07T07:21:12;3.45;;;1.63;;
61397;SDS011;47267;48.130;-2.040;2023-05-07T07:23:37;4.18;;;1.35;;
61397;SDS011;47267;48.130;-2.040;2023-05-07T07:26:03;3.28;;;1.48;;
61397;SDS011;47267;48.130;-2.040;2023-05-07T07:28:29;4.78;;;1.42;;
61397;SDS011;47267;48.130;-2.040;2023-05-07T07:30:55;3.75;;;1.23;;
61397;SDS011;47267;48.130;-2.040;2023-05-07T07:33:20;3.65;;;1.20;;
61397;SDS011;47267;48.130;-2.040;2023-05-07T07:35:46;3.95;;;1.35;;
61397;SDS011;47267;48.130;-2.040;2023-05-07T07:38:12;4.80;;;1.55;;
61397;SDS011;47267;48.130;-2.040;2023-05-07T07:40:37;3.30;;;1.40;;
61397;SDS011;47267;48.130;-2.040;2023-05-07T07:43:03;2.83;;;1.40;;
61397;SDS011;47267;48.130;-2.040;2023-05-07T07:45:29;3.38;;;1.13;;
61397;SDS011;47267;48.130;-2.040;2023-05-07T07:47:55;4.18;;;1.27;;
61397;SDS011;47267;48.130;-2.040;2023-05-07T07:50:21;4.13;;;1.33;;
61397;SDS011;47267;48.130;-2.040;2023-05-07T07:52:48;4.32;;;1.50;;
61397;SDS011;47267;48.130;-2.040;2023-05-07T07:55:13;2.05;;;1.40;;
61397;SDS011;47267;48.130;-2.040;2023-05-07T07:57:43;2.30;;;1.20;;
61397;SDS011;47267;48.130;-2.040;2023-05-07T08:00:08;3.63;;;1.40;;
61397;SDS011;47267;48.130;-2.040;2023-05-07T08:02:35;3.70;;;1.20;;
61397;SDS011;47267;48.130;-2.040;2023-05-07T08:05:04;2.25;;;1.20;;
61397;SDS011;47267;48.130;-2.040;2023-05-07T08:07:29;3.33;;;1.40;;
61397;SDS011;47267;48.130;-2.040;2023-05-07T08:09:55;2.85;;;1.25;;
61397;SDS011;47267;48.130;-2.040;2023-05-07T08:12:21;5.05;;;1.10;;
61397;SDS011;47267;48.130;-2.040;2023-05-07T08:14:46;3.90;;;1.20;;
61397;SDS011;47267;48.130;-2.040;2023-05-07T08:17:12;5.20;;;1.20;;
61397;SDS011;47267;48.130;-2.040;2023-05-07T08:19:40;3.33;;;1.30;;
61397;SDS011;47267;48.130;-2.040;2023-05-07T08:22:06;3.47;;;1.20;;
61397;SDS011;47267;48.130;-2.040;2023-05-07T08:24:32;3.97;;;1.23;;
61397;SDS011;47267;48.130;-2.040;2023-05-07T08:26:58;5.47;;;1.50;;
61397;SDS011;47267;48.130;-2.040;2023-05-07T08:29:23;2.30;;;1.23;;
61397;SDS011;47267;48.130;-2.040;2023-05-07T08:31:49;4.28;;;1.35;;
61397;SDS011;47267;48.130;-2.040;2023-05-07T08:34:15;6.10;;;1.52;;
61397;SDS011;47267;48.130;-2.040;2023-05-07T08:36:40;4.97;;;1.40;;
61397;SDS011;47267;48.130;-2.040;2023-05-07T08:39:11;2.63;;;1.13;;
61397;SDS011;47267;48.130;-2.040;2023-05-07T08:41:37;4.38;;;1.10;;
61397;SDS011;47267;48.130;-2.040;2023-05-07T08:44:03;3.63;;;1.20;;
61397;SDS011;47267;48.130;-2.040;2023-05-07T08:46:36;4.10;;;1.30;;
61397;SDS011;47267;48.130;-2.040;2023-05-07T08:49:02;3.65;;;1.48;;
61397;SDS011;47267;48.130;-2.040;2023-05-07T08:51:28;4.13;;;1.52;;
61397;SDS011;47267;48.130;-2.040;2023-05-07T08:53:54;5.07;;;1.75;;
61397;SDS011;47267;48.130;-2.040;2023-05-07T08:56:19;6.30;;;2.25;;
61397;SDS011;47267;48.130;-2.040;2023-05-07T08:58:46;3.80;;;1.90;;
61397;SDS011;47267;48.130;-2.040;2023-05-07T09:01:13;7.00;;;2.60;;
61397;SDS011;47267;48.130;-2.040;2023-05-07T09:03:45;8.07;;;2.67;;
61397;SDS011;47267;48.130;-2.040;2023-05-07T09:06:11;9.05;;;2.55;;
61397;SDS011;47267;48.130;-2.040;2023-05-07T09:08:37;6.60;;;2.60;;
61397;SDS011;47267;48.130;-2.040;2023-05-07T09:11:03;6.70;;;2.22;;
61397;SDS011;47267;48.130;-2.040;2023-05-07T09:13:29;6.03;;;2.38;;
61397;SDS011;47267;48.130;-2.040;2023-05-07T09:15:56;3.92;;;2.10;;
61397;SDS011;47267;48.130;-2.040;2023-05-07T09:18:23;5.03;;;2.70;;
61397;SDS011;47267;48.130;-2.040;2023-05-07T09:20:50;3.85;;;2.08;;
61397;SDS011;47267;48.130;-2.040;2023-05-07T09:23:16;4.68;;;2.20;;
61397;SDS011;47267;48.130;-2.040;2023-05-07T09:25:41;9.05;;;1.90;;
61397;SDS011;47267;48.130;-2.040;2023-05-07T09:28:07;6.97;;;2.10;;
61397;SDS011;47267;48.130;-2.040;2023-05-07T09:30:35;5.65;;;2.30;;
61397;SDS011;47267;48.130;-2.040;2023-05-07T09:33:02;5.47;;;2.35;;
61397;SDS011;47267;48.130;-2.040;2023-05-07T09:35:29;6.13;;;2.40;;
61397;SDS011;47267;48.130;-2.040;2023-05-07T09:37:58;12.15;;;4.35;;
61397;SDS011;47267;48.130;-2.040;2023-05-07T09:40:26;6.95;;;4.78;;
61397;SDS011;47267;48.130;-2.040;2023-05-07T09:42:53;9.48;;;4.40;;
61397;SDS011;47267;48.130;-2.040;2023-05-07T09:45:24;7.53;;;3.85;;
61397;SDS011;47267;48.130;-2.040;2023-05-07T09:47:53;6.38;;;3.90;;
61397;SDS011;47267;48.130;-2.040;2023-05-07T09:50:22;9.82;;;4.57;;
61397;SDS011;47267;48.130;-2.040;2023-05-07T09:52:53;5.97;;;4.20;;
61397;SDS011;47267;48.130;-2.040;2023-05-07T09:55:20;14.57;;;5.55;;
61397;SDS011;47267;48.130;-2.040;2023-05-07T09:57:47;12.43;;;4.82;;
61397;SDS011;47267;48.130;-2.040;2023-05-07T10:00:20;12.88;;;5.15;;
61397;SDS011;47267;48.130;-2.040;2023-05-07T10:02:47;5.40;;;3.72;;
61397;SDS011;47267;48.130;-2.040;2023-05-07T10:05:15;9.05;;;4.70;;
61397;SDS011;47267;48.130;-2.040;2023-05-07T10:07:41;9.77;;;5.07;;
61397;SDS011;47267;48.130;-2.040;2023-05-07T10:10:07;7.45;;;4.75;;
61397;SDS011;47267;48.130;-2.040;2023-05-07T10:12:34;6.53;;;4.35;;
61397;SDS011;47267;48.130;-2.040;2023-05-07T10:15:07;4.80;;;3.38;;
61397;SDS011;47267;48.130;-2.040;2023-05-07T10:17:37;6.03;;;3.40;;
61397;SDS011;47267;48.130;-2.040;2023-05-07T10:20:04;7.07;;;4.25;;
61397;SDS011;47267;48.130;-2.040;2023-05-07T10:22:32;11.30;;;4.35;;
61397;SDS011;47267;48.130;-2.040;2023-05-07T10:25:03;6.78;;;3.85;;
61397;SDS011;47267;48.130;-2.040;2023-05-07T10:27:53;10.00;;;3.85;;
61397;SDS011;47267;48.130;-2.040;2023-05-07T10:33:10;13.95;;;5.35;;
61397;SDS011;47267;48.130;-2.040;2023-05-07T10:35:42;9.85;;;4.63;;
61397;SDS011;47267;48.130;-2.040;2023-05-07T10:38:10;10.73;;;4.90;;
61397;SDS011;47267;48.130;-2.040;2023-05-07T10:40:36;9.82;;;5.05;;
61397;SDS011;47267;48.130;-2.040;2023-05-07T10:43:03;9.07;;;5.10;;
61397;SDS011;47267;48.130;-2.040;2023-05-07T10:45:32;8.73;;;5.32;;
61397;SDS011;47267;48.130;-2.040;2023-05-07T10:50:40;11.20;;;5.53;;
61397;SDS011;47267;48.130;-2.040;2023-05-07T10:55:48;8.70;;;4.70;;
61397;SDS011;47267;48.130;-2.040;2023-05-07T11:00:47;7.32;;;4.13;;
61397;SDS011;47267;48.130;-2.040;2023-05-07T11:03:14;7.10;;;4.03;;
61397;SDS011;47267;48.130;-2.040;2023-05-07T11:05:40;7.60;;;4.13;;
61397;SDS011;47267;48.130;-2.040;2023-05-07T11:08:07;6.97;;;3.80;;
61397;SDS011;47267;48.130;-2.040;2023-05-07T11:10:52;7.82;;;3.53;;
61397;SDS011;47267;48.130;-2.040;2023-05-07T11:16:24;9.60;;;4.13;;
61397;SDS011;47267;48.130;-2.040;2023-05-07T11:18:55;7.95;;;4.78;;
61397;SDS011;47267;48.130;-2.040;2023-05-07T11:21:40;12.10;;;6.57;;
61397;SDS011;47267;48.130;-2.040;2023-05-07T11:24:07;15.95;;;7.10;;
61397;SDS011;47267;48.130;-2.040;2023-05-07T11:26:47;11.13;;;6.43;;
61397;SDS011;47267;48.130;-2.040;2023-05-07T11:29:15;15.05;;;8.40;;
61397;SDS011;47267;48.130;-2.040;2023-05-07T11:31:42;17.13;;;8.80;;
61397;SDS011;47267;48.130;-2.040;2023-05-07T11:34:08;19.40;;;8.65;;
61397;SDS011;47267;48.130;-2.040;2023-05-07T11:36:34;16.42;;;7.88;;
61397;SDS011;47267;48.130;-2.040;2023-05-07T11:39:22;11.50;;;6.90;;
61397;SDS011;47267;48.130;-2.040;2023-05-07T11:42:01;9.15;;;5.85;;
61397;SDS011;47267;48.130;-2.040;2023-05-07T11:44:48;11.90;;;6.68;;
61397;SDS011;47267;48.130;-2.040;2023-05-07T11:47:17;14.90;;;7.40;;
61397;SDS011;47267;48.130;-2.040;2023-05-07T11:49:45;12.27;;;6.63;;
61397;SDS011;47267;48.130;-2.040;2023-05-07T11:52:13;10.57;;;6.18;;
61397;SDS011;47267;48.130;-2.040;2023-05-07T11:54:39;17.48;;;6.85;;
61397;SDS011;47267;48.130;-2.040;2023-05-07T11:57:05;11.88;;;6.40;;
61397;SDS011;47267;48.130;-2.040;2023-05-07T11:59:41;13.48;;;6.35;;
61397;SDS011;47267;48.130;-2.040;2023-05-07T12:02:09;13.68;;;6.88;;
61397;SDS011;47267;48.130;-2.040;2023-05-07T12:04:35;14.55;;;6.75;;
61397;SDS011;47267;48.130;-2.040;2023-05-07T12:07:01;10.15;;;5.55;;
61397;SDS011;47267;48.130;-2.040;2023-05-07T12:09:26;9.50;;;5.55;;
61397;SDS011;47267;48.130;-2.040;2023-05-07T12:11:53;7.82;;;5.15;;
61397;SDS011;47267;48.130;-2.040;2023-05-07T12:14:18;9.93;;;4.97;;
61397;SDS011;47267;48.130;-2.040;2023-05-07T12:16:44;10.70;;;4.70;;
61397;SDS011;47267;48.130;-2.040;2023-05-07T12:19:11;8.02;;;3.97;;
61397;SDS011;47267;48.130;-2.040;2023-05-07T12:21:40;6.50;;;3.50;;
61397;SDS011;47267;48.130;-2.040;2023-05-07T12:24:06;6.20;;;3.10;;
61397;SDS011;47267;48.130;-2.040;2023-05-07T12:26:36;6.32;;;3.20;;
61397;SDS011;47267;48.130;-2.040;2023-05-07T12:29:05;9.93;;;3.30;;
61397;SDS011;47267;48.130;-2.040;2023-05-07T12:31:31;7.70;;;2.95;;
61397;SDS011;47267;48.130;-2.040;2023-05-07T12:33:57;6.78;;;2.97;;
61397;SDS011;47267;48.130;-2.040;2023-05-07T12:36:25;9.48;;;3.45;;
61397;SDS011;47267;48.130;-2.040;2023-05-07T12:38:50;8.57;;;3.47;;
61397;SDS011;47267;48.130;-2.040;2023-05-07T12:41:16;11.02;;;3.88;;
61397;SDS011;47267;48.130;-2.040;2023-05-07T12:43:43;7.63;;;3.72;;
61397;SDS011;47267;48.130;-2.040;2023-05-07T12:46:09;5.75;;;3.05;;
61397;SDS011;47267;48.130;-2.040;2023-05-07T12:48:36;9.70;;;3.88;;
61397;SDS011;47267;48.130;-2.040;2023-05-07T12:51:08;8.60;;;3.53;;
61397;SDS011;47267;48.130;-2.040;2023-05-07T12:53:39;10.75;;;4.38;;
61397;SDS011;47267;48.130;-2.040;2023-05-07T12:56:07;11.15;;;4.57;;
61397;SDS011;47267;48.130;-2.040;2023-05-07T12:58:35;9.23;;;5.10;;
61397;SDS011;47267;48.130;-2.040;2023-05-07T13:01:03;11.18;;;4.95;;
61397;SDS011;47267;48.130;-2.040;2023-05-07T13:03:31;9.65;;;4.93;;
61397;SDS011;47267;48.130;-2.040;2023-05-07T13:05:59;11.25;;;5.05;;
61397;SDS011;47267;48.130;-2.040;2023-05-07T13:11:01;11.52;;;4.35;;
61397;SDS011;47267;48.130;-2.040;2023-05-07T13:15:57;8.95;;;4.70;;
61397;SDS011;47267;48.130;-2.040;2023-05-07T13:18:25;7.53;;;4.30;;
61397;SDS011;47267;48.130;-2.040;2023-05-07T13:23:43;34.17;;;5.88;;
61397;SDS011;47267;48.130;-2.040;2023-05-07T13:26:09;76.65;;;8.60;;
61397;SDS011;47267;48.130;-2.040;2023-05-07T13:28:35;48.78;;;7.07;;
61397;SDS011;47267;48.130;-2.040;2023-05-07T13:31:00;27.42;;;5.97;;
61397;SDS011;47267;48.130;-2.040;2023-05-07T13:33:26;38.25;;;5.50;;
61397;SDS011;47267;48.130;-2.040;2023-05-07T13:35:52;23.67;;;5.97;;
61397;SDS011;47267;48.130;-2.040;2023-05-07T13:38:18;22.40;;;5.28;;
61397;SDS011;47267;48.130;-2.040;2023-05-07T13:40:43;12.35;;;4.47;;
61397;SDS011;47267;48.130;-2.040;2023-05-07T13:43:09;18.95;;;4.32;;
61397;SDS011;47267;48.130;-2.040;2023-05-07T13:45:35;15.20;;;4.88;;
61397;SDS011;47267;48.130;-2.040;2023-05-07T13:48:01;13.85;;;4.95;;
61397;SDS011;47267;48.130;-2.040;2023-05-07T13:50:26;14.60;;;4.65;;
61397;SDS011;47267;48.130;-2.040;2023-05-07T13:52:54;13.18;;;4.50;;
61397;SDS011;47267;48.130;-2.040;2023-05-07T13:55:20;14.63;;;4.57;;
61397;SDS011;47267;48.130;-2.040;2023-05-07T13:57:48;14.13;;;4.57;;
61397;SDS011;47267;48.130;-2.040;2023-05-07T14:00:24;13.07;;;4.10;;
61397;SDS011;47267;48.130;-2.040;2023-05-07T14:02:50;13.43;;;4.15;;
61397;SDS011;47267;48.130;-2.040;2023-05-07T14:05:16;13.77;;;3.83;;
61397;SDS011;47267;48.130;-2.040;2023-05-07T14:07:41;13.57;;;3.90;;
61397;SDS011;47267;48.130;-2.040;2023-05-07T14:10:07;14.07;;;4.03;;
61397;SDS011;47267;48.130;-2.040;2023-05-07T14:12:34;9.77;;;4.25;;
61397;SDS011;47267;48.130;-2.040;2023-05-07T14:15:00;14.45;;;3.92;;
61397;SDS011;47267;48.130;-2.040;2023-05-07T14:17:26;8.77;;;3.70;;
61397;SDS011;47267;48.130;-2.040;2023-05-07T14:19:52;9.65;;;3.70;;
61397;SDS011;47267;48.130;-2.040;2023-05-07T14:22:21;8.27;;;3.28;;
61397;SDS011;47267;48.130;-2.040;2023-05-07T14:24:48;8.48;;;3.30;;
61397;SDS011;47267;48.130;-2.040;2023-05-07T14:27:14;13.18;;;3.75;;
61397;SDS011;47267;48.130;-2.040;2023-05-07T14:29:40;8.27;;;3.50;;
61397;SDS011;47267;48.130;-2.040;2023-05-07T14:32:07;9.20;;;3.55;;
61397;SDS011;47267;48.130;-2.040;2023-05-07T14:34:33;9.18;;;3.03;;
61397;SDS011;47267;48.130;-2.040;2023-05-07T14:36:59;7.28;;;2.90;;
61397;SDS011;47267;48.130;-2.040;2023-05-07T14:39:25;7.15;;;3.42;;
61397;SDS011;47267;48.130;-2.040;2023-05-07T14:41:51;8.02;;;2.95;;
61397;SDS011;47267;48.130;-2.040;2023-05-07T14:44:16;11.02;;;2.92;;
61397;SDS011;47267;48.130;-2.040;2023-05-07T14:46:42;6.75;;;3.10;;
61397;SDS011;47267;48.130;-2.040;2023-05-07T14:49:08;6.32;;;3.22;;
61397;SDS011;47267;48.130;-2.040;2023-05-07T14:51:42;5.47;;;2.75;;